createdAt,value
2023-05-20T00:00:50.902Z,11.65
2023-05-20T00:03:53.870Z,11.70
2023-05-20T00:06:56.079Z,11.50
2023-05-20T00:09:58.344Z,11.47
2023-05-20T00:13:01.592Z,11.56
2023-05-20T00:16:05.891Z,11.61
2023-05-20T00:19:07.799Z,11.64
2023-05-20T00:22:09.653Z,11.70
2023-05-20T00:25:13.647Z,11.66
2023-05-20T00:28:19.055Z,11.54
2023-05-20T00:31:22.470Z,11.65
2023-05-20T00:34:24.261Z,11.66
2023-05-20T00:37:26.473Z,11.65
2023-05-20T00:40:30.658Z,11.28
2023-05-20T00:43:36.108Z,11.32
2023-05-20T00:46:38.854Z,11.34
2023-05-20T00:49:40.865Z,11.38
2023-05-20T00:52:43.127Z,11.33
2023-05-20T00:55:45.004Z,11.36
2023-05-20T00:58:48.398Z,11.33
2023-05-20T01:01:52.147Z,11.42
2023-05-20T01:04:54.623Z,11.50
2023-05-20T01:07:56.439Z,11.44
2023-05-20T01:11:04.346Z,11.50
2023-05-20T01:14:10.737Z,11.50
2023-05-20T01:17:14.758Z,11.30
2023-05-20T01:20:18.017Z,11.40
2023-05-20T01:23:22.665Z,11.44
2023-05-20T01:26:24.721Z,11.35
2023-05-20T01:29:29.267Z,11.30
2023-05-20T01:32:34.467Z,11.35
2023-05-20T01:35:36.768Z,11.33
2023-05-20T01:38:42.054Z,11.26
2023-05-20T01:41:47.439Z,11.24
2023-05-20T01:44:49.548Z,11.14
2023-05-20T01:47:52.766Z,11.19
2023-05-20T01:50:54.898Z,11.20
2023-05-20T01:53:58.010Z,11.15
2023-05-20T01:57:00.050Z,11.30
2023-05-20T02:00:02.319Z,11.21
2023-05-20T02:03:04.178Z,11.27
2023-05-20T02:06:08.159Z,11.20
2023-05-20T02:09:11.472Z,11.05
2023-05-20T02:12:13.285Z,11.02
2023-05-20T02:15:15.435Z,11.01
2023-05-20T02:18:17.180Z,10.94
2023-05-20T02:21:18.943Z,10.81
2023-05-20T02:24:24.742Z,10.83
2023-05-20T02:27:27.203Z,10.80
2023-05-20T02:30:29.452Z,10.71
2023-05-20T02:33:33.467Z,10.75
2023-05-20T02:36:38.212Z,10.85
2023-05-20T02:39:41.779Z,10.91
2023-05-20T02:42:43.511Z,10.80
2023-05-20T02:45:46.085Z,10.95
2023-05-20T02:48:48.852Z,10.93
2023-05-20T02:51:53.459Z,10.89
2023-05-20T02:55:00.205Z,10.84
2023-05-20T02:58:04.435Z,10.81
2023-05-20T03:01:06.297Z,10.81
2023-05-20T03:04:08.532Z,10.67
2023-05-20T03:07:10.562Z,10.77
2023-05-20T03:10:18.894Z,10.71
2023-05-20T03:13:20.721Z,10.79
2023-05-20T03:16:25.763Z,10.83
2023-05-20T03:19:27.704Z,10.85
2023-05-20T03:22:30.813Z,10.59
2023-05-20T03:25:34.404Z,10.63
2023-05-20T03:28:36.824Z,10.49
2023-05-20T03:31:41.385Z,10.67
2023-05-20T03:34:43.331Z,10.65
2023-05-20T03:37:47.962Z,10.51
2023-05-20T03:40:51.321Z,10.51
2023-05-20T03:43:53.411Z,10.61
2023-05-20T03:46:55.584Z,10.69
2023-05-20T03:49:57.505Z,10.74
2023-05-20T03:52:59.816Z,10.86
2023-05-20T03:56:05.892Z,10.83
2023-05-20T03:59:10.686Z,10.74
2023-05-20T04:02:12.725Z,10.84
2023-05-20T04:05:16.592Z,10.83
2023-05-20T04:08:19.090Z,10.83
2023-05-20T04:11:24.941Z,10.85
2023-05-20T04:14:29.219Z,10.83
2023-05-20T04:17:31.654Z,10.96
2023-05-20T04:20:34.032Z,10.98
2023-05-20T04:23:35.759Z,11.03
2023-05-20T04:26:41.353Z,10.89
2023-05-20T04:29:45.262Z,10.97
2023-05-20T04:32:47.342Z,11.03
2023-05-20T04:35:51.638Z,10.93
2023-05-20T04:38:56.604Z,11.02
2023-05-20T04:42:00.683Z,10.98
2023-05-20T04:45:06.330Z,11.04
2023-05-20T04:48:08.141Z,11.06
2023-05-20T04:51:09.931Z,11.11
2023-05-20T04:54:11.920Z,11.13
2023-05-20T04:57:17.722Z,11.15
2023-05-20T05:00:21.734Z,11.09
2023-05-20T05:03:23.646Z,11.03
2023-05-20T05:06:25.675Z,11.11
2023-05-20T05:09:27.687Z,11.21
2023-05-20T05:12:31.076Z,11.15
2023-05-20T05:15:35.215Z,11.13
2023-05-20T05:18:37.337Z,11.17
2023-05-20T05:21:42.359Z,11.25
2023-05-20T05:24:45.174Z,11.13
2023-05-20T05:27:50.801Z,11.20
2023-05-20T05:30:55.979Z,11.22
2023-05-20T05:33:58.558Z,11.18
2023-05-20T05:37:00.594Z,11.32
2023-05-20T05:40:04.471Z,11.43
2023-05-20T05:43:11.599Z,11.46
2023-05-20T05:46:14.933Z,11.48
2023-05-20T05:49:17.373Z,11.51
2023-05-20T05:52:21.607Z,11.48
2023-05-20T05:55:23.696Z,11.62
2023-05-20T05:58:35.710Z,11.64
2023-05-20T06:01:38.018Z,11.73
2023-05-20T06:04:40.028Z,11.75
2023-05-20T06:07:42.444Z,11.73
2023-05-20T06:10:47.786Z,11.85
2023-05-20T06:13:51.031Z,11.88
2023-05-20T06:16:54.168Z,11.93
2023-05-20T06:19:56.462Z,12.01
2023-05-20T06:22:58.641Z,12.10
2023-05-20T06:26:01.113Z,12.17
2023-05-20T06:29:04.784Z,12.18
2023-05-20T06:32:06.964Z,12.21
2023-05-20T06:35:09.943Z,12.33
2023-05-20T06:38:11.924Z,12.38
2023-05-20T06:41:14.222Z,12.38
2023-05-20T06:44:17.889Z,12.53
2023-05-20T06:47:20.883Z,12.51
2023-05-20T06:50:22.643Z,12.46
2023-05-20T06:53:24.434Z,12.54
2023-05-20T06:56:26.482Z,12.60
2023-05-20T06:59:29.878Z,12.66
2023-05-20T07:02:35.108Z,12.74
2023-05-20T07:05:36.911Z,12.82
2023-05-20T07:08:38.964Z,12.98
2023-05-20T07:11:41.974Z,12.90
2023-05-20T07:14:47.802Z,13.09
2023-05-20T07:17:49.863Z,13.17
2023-05-20T07:20:52.768Z,13.21
2023-05-20T07:23:54.771Z,13.24
2023-05-20T07:26:59.265Z,13.37
2023-05-20T07:30:02.400Z,13.54
2023-05-20T07:33:05.221Z,13.47
2023-05-20T07:36:09.096Z,13.58
2023-05-20T07:39:15.070Z,13.71
2023-05-20T07:42:16.920Z,13.84
2023-05-20T07:45:20.448Z,13.89
2023-05-20T07:48:24.443Z,13.98
2023-05-20T07:51:26.209Z,13.97
2023-05-20T07:54:28.936Z,14.09
2023-05-20T07:57:30.732Z,14.08
2023-05-20T08:00:36.292Z,14.14
2023-05-20T08:03:38.577Z,14.13
2023-05-20T08:06:43.371Z,14.23
2023-05-20T08:09:45.339Z,14.31
2023-05-20T08:12:47.363Z,14.40
2023-05-20T08:15:52.829Z,14.49
2023-05-20T08:18:58.805Z,14.45
2023-05-20T08:22:00.600Z,14.46
2023-05-20T08:25:04.971Z,14.50
2023-05-20T08:28:10.247Z,14.57
2023-05-20T08:31:15.171Z,14.64
2023-05-20T08:34:17.215Z,14.80
2023-05-20T08:37:19.176Z,14.82
2023-05-20T08:40:21.130Z,14.79
2023-05-20T08:43:23.450Z,14.83
2023-05-20T08:46:27.205Z,14.91
2023-05-20T08:49:29.341Z,14.99
2023-05-20T08:52:34.823Z,15.03
2023-05-20T08:55:42.970Z,15.13
2023-05-20T08:58:45.275Z,15.40
2023-05-20T09:01:51.419Z,15.53
2023-05-20T09:04:53.426Z,15.71
2023-05-20T09:08:05.552Z,15.75
2023-05-20T09:11:09.892Z,15.84
2023-05-20T09:14:11.749Z,15.96
2023-05-20T09:17:15.818Z,16.01
2023-05-20T09:20:18.262Z,16.10
2023-05-20T09:23:20.493Z,16.09
2023-05-20T09:26:23.953Z,16.13
2023-05-20T09:29:26.418Z,16.28
2023-05-20T09:32:31.850Z,16.25
2023-05-20T09:35:36.423Z,16.36
2023-05-20T09:38:39.289Z,16.51
2023-05-20T09:41:49.490Z,16.70
2023-05-20T09:44:53.913Z,16.73
2023-05-20T09:47:58.153Z,16.76
2023-05-20T09:51:01.535Z,16.98
2023-05-20T09:54:04.838Z,17.15
2023-05-20T09:57:10.134Z,17.26
2023-05-20T10:00:12.842Z,17.36
2023-05-20T10:03:18.933Z,17.43
2023-05-20T10:06:38.751Z,17.51
2023-05-20T10:09:57.825Z,17.67
2023-05-20T10:13:09.326Z,17.78
2023-05-20T10:16:23.380Z,17.87
2023-05-20T10:19:34.831Z,17.96
2023-05-20T10:22:36.634Z,17.89
2023-05-20T10:25:40.392Z,17.76
2023-05-20T10:28:42.599Z,17.77
2023-05-20T10:31:45.757Z,17.79
2023-05-20T10:34:50.741Z,17.79
2023-05-20T10:37:53.513Z,17.92
2023-05-20T10:40:57.582Z,17.90
2023-05-20T10:44:00.482Z,17.92
2023-05-20T10:47:23.562Z,17.92
2023-05-20T10:50:36.845Z,18.06
2023-05-20T10:53:41.471Z,18.14
2023-05-20T10:56:52.371Z,18.00
2023-05-20T10:59:57.494Z,18.06
2023-05-20T11:03:00.548Z,18.28
2023-05-20T11:06:16.137Z,18.34
2023-05-20T11:09:21.625Z,18.41
2023-05-20T11:12:24.808Z,18.49
2023-05-20T11:15:29.674Z,18.51
2023-05-20T11:18:32.679Z,18.46
2023-05-20T11:21:43.377Z,18.55
2023-05-20T11:24:45.386Z,18.61
2023-05-20T11:27:49.611Z,18.60
2023-05-20T11:30:52.343Z,18.62
2023-05-20T11:33:55.408Z,18.75
2023-05-20T11:36:59.166Z,18.77
2023-05-20T11:40:08.189Z,18.78
2023-05-20T11:43:12.028Z,18.74
2023-05-20T11:46:13.846Z,18.78
2023-05-20T11:49:19.049Z,18.65
2023-05-20T11:52:23.481Z,18.83
2023-05-20T11:55:26.488Z,18.73
2023-05-20T11:58:30.840Z,18.76
2023-05-20T12:01:33.762Z,18.91
2023-05-20T12:04:38.581Z,18.72
2023-05-20T12:07:44.371Z,18.71
2023-05-20T12:10:46.363Z,18.76
2023-05-20T12:13:48.577Z,18.77
2023-05-20T12:16:50.549Z,18.76
2023-05-20T12:19:54.961Z,18.74
2023-05-20T12:22:58.372Z,18.78
2023-05-20T12:26:00.296Z,18.90
2023-05-20T12:29:02.103Z,19.05
2023-05-20T12:32:05.694Z,19.23
2023-05-20T12:35:09.771Z,19.28
2023-05-20T12:38:13.019Z,19.35
2023-05-20T12:41:15.337Z,19.43
2023-05-20T12:44:19.590Z,19.36
2023-05-20T12:47:23.063Z,19.34
2023-05-20T12:50:25.296Z,19.19
2023-05-20T12:53:28.457Z,19.31
2023-05-20T12:56:33.033Z,19.29
2023-05-20T12:59:36.897Z,19.33
2023-05-20T13:02:40.072Z,19.44
2023-05-20T13:05:42.133Z,19.38
2023-05-20T13:08:47.147Z,19.35
2023-05-20T13:11:49.340Z,19.47
2023-05-20T13:14:51.541Z,19.28
2023-05-20T13:17:58.959Z,19.20
2023-05-20T13:21:04.781Z,19.26
2023-05-20T13:24:10.708Z,19.31
2023-05-20T13:27:13.250Z,19.32
2023-05-20T13:30:15.013Z,19.37
2023-05-20T13:33:16.834Z,19.27
2023-05-20T13:36:19.999Z,19.30
2023-05-20T13:39:25.448Z,19.26
2023-05-20T13:42:27.544Z,19.24
2023-05-20T13:45:29.481Z,19.21
2023-05-20T13:48:34.078Z,19.34
2023-05-20T13:51:35.961Z,19.33
2023-05-20T13:54:40.620Z,19.37
2023-05-20T13:57:42.489Z,19.46
2023-05-20T14:00:44.633Z,19.33
2023-05-20T14:03:46.785Z,19.30
2023-05-20T14:06:48.648Z,19.27
2023-05-20T14:09:54.354Z,19.35
2023-05-20T14:12:58.219Z,19.37
2023-05-20T14:16:00.150Z,19.42
2023-05-20T14:19:02.280Z,19.42
2023-05-20T14:22:05.582Z,19.48
2023-05-20T14:25:09.428Z,19.42
2023-05-20T14:28:11.495Z,19.45
2023-05-20T14:31:14.274Z,19.61
2023-05-20T14:34:16.393Z,19.59
2023-05-20T14:37:19.160Z,19.59
2023-05-20T14:40:22.588Z,19.55
2023-05-20T14:43:24.688Z,19.69
2023-05-20T14:46:27.020Z,19.69
2023-05-20T14:49:31.376Z,19.72
2023-05-20T14:52:33.195Z,19.66
2023-05-20T14:55:37.530Z,19.69
2023-05-20T14:58:39.319Z,19.77
2023-05-20T15:01:41.400Z,19.75
2023-05-20T15:04:44.600Z,19.82
2023-05-20T15:07:48.634Z,19.96
2023-05-20T15:10:51.748Z,20.14
2023-05-20T15:13:53.560Z,20.23
2023-05-20T15:16:55.429Z,20.05
2023-05-20T15:19:59.540Z,20.12
2023-05-20T15:23:02.504Z,20.27
2023-05-20T15:26:06.539Z,20.21
2023-05-20T15:29:08.545Z,20.30
2023-05-20T15:32:11.219Z,20.16
2023-05-20T15:35:13.053Z,20.02
2023-05-20T15:38:15.554Z,19.91
2023-05-20T15:41:19.074Z,19.82
2023-05-20T15:44:21.130Z,19.82
2023-05-20T15:47:22.846Z,19.97
2023-05-20T15:50:24.641Z,19.93
2023-05-20T15:53:28.956Z,20.15
2023-05-20T15:56:32.813Z,20.40
2023-05-20T15:59:38.145Z,20.64
2023-05-20T16:02:40.375Z,20.82
2023-05-20T16:05:42.416Z,20.90
2023-05-20T16:08:44.662Z,20.68
2023-05-20T16:11:50.130Z,20.30
2023-05-20T16:14:51.943Z,20.25
2023-05-20T16:17:53.833Z,20.27
2023-05-20T16:20:56.070Z,20.22
2023-05-20T16:23:57.865Z,20.18
2023-05-20T16:27:01.170Z,20.26
2023-05-20T16:30:03.024Z,20.33
2023-05-20T16:33:05.071Z,19.92
2023-05-20T16:36:07.027Z,20.23
2023-05-20T16:39:09.142Z,20.12
2023-05-20T16:42:12.397Z,20.19
2023-05-20T16:45:16.291Z,20.05
2023-05-20T16:48:18.026Z,20.02
2023-05-20T16:51:20.280Z,19.96
2023-05-20T16:54:22.007Z,20.05
2023-05-20T16:57:25.171Z,20.21
2023-05-20T17:00:27.521Z,20.21
2023-05-20T17:03:29.650Z,20.21
2023-05-20T17:06:34.167Z,20.19
2023-05-20T17:09:36.417Z,20.07
2023-05-20T17:12:39.847Z,20.10
2023-05-20T17:15:41.840Z,20.19
2023-05-20T17:18:43.935Z,20.05
2023-05-20T17:21:46.912Z,20.06
2023-05-20T17:24:49.016Z,19.53
2023-05-20T17:27:53.294Z,19.65
2023-05-20T17:30:55.600Z,19.61
2023-05-20T17:33:58.241Z,19.60
2023-05-20T17:37:00.763Z,19.34
2023-05-20T17:40:04.026Z,19.30
2023-05-20T17:43:09.316Z,19.00
2023-05-20T17:46:12.028Z,19.12
2023-05-20T17:49:14.971Z,18.81
2023-05-20T17:52:18.128Z,18.88
2023-05-20T17:55:20.716Z,18.84
2023-05-20T17:58:24.850Z,18.83
2023-05-20T18:01:27.708Z,18.38
2023-05-20T18:04:30.658Z,18.56
2023-05-20T18:07:33.105Z,18.52
2023-05-20T18:10:36.296Z,18.55
2023-05-20T18:13:40.268Z,18.41
2023-05-20T18:16:42.642Z,18.09
2023-05-20T18:19:45.600Z,18.20
2023-05-20T18:22:48.160Z,18.13
2023-05-20T18:25:50.637Z,18.13
2023-05-20T18:28:54.452Z,18.00
2023-05-20T18:31:57.100Z,18.00
2023-05-20T18:35:00.244Z,17.76
2023-05-20T18:38:03.146Z,17.82
2023-05-20T18:41:08.503Z,17.66
2023-05-20T18:44:12.973Z,17.69
2023-05-20T18:47:15.994Z,17.51
2023-05-20T18:50:18.990Z,17.59
2023-05-20T18:53:24.064Z,17.57
2023-05-20T18:56:26.939Z,17.56
2023-05-20T18:59:31.109Z,17.35
2023-05-20T19:02:33.656Z,17.33
2023-05-20T19:05:36.893Z,17.42
2023-05-20T19:08:40.692Z,17.32
2023-05-20T19:11:43.186Z,17.32
2023-05-20T19:14:48.134Z,17.13
2023-05-20T19:17:50.968Z,17.21
2023-05-20T19:20:54.606Z,17.30
2023-05-20T19:23:57.212Z,17.28
2023-05-20T19:27:02.570Z,17.29
2023-05-20T19:30:10.018Z,17.22
2023-05-20T19:33:13.582Z,17.13
2023-05-20T19:36:17.457Z,17.15
2023-05-20T19:39:20.477Z,17.11
2023-05-20T19:42:23.171Z,16.98
2023-05-20T19:45:27.117Z,17.01
2023-05-20T19:48:30.330Z,16.99
2023-05-20T19:51:32.928Z,16.89
2023-05-20T19:54:35.528Z,16.90
2023-05-20T19:57:41.136Z,16.88
2023-05-20T20:00:45.002Z,16.93
2023-05-20T20:03:47.526Z,16.73
2023-05-20T20:06:51.170Z,16.76
2023-05-20T20:09:54.349Z,16.68
2023-05-20T20:12:56.899Z,16.79
2023-05-20T20:16:02.028Z,16.81
2023-05-20T20:19:04.793Z,16.74
2023-05-20T20:22:07.430Z,16.78
2023-05-20T20:25:10.190Z,16.79
2023-05-20T20:28:12.772Z,16.76
2023-05-20T20:31:16.654Z,16.79
2023-05-20T20:34:19.255Z,16.78
2023-05-20T20:37:21.799Z,16.73
2023-05-20T20:40:25.774Z,16.80
2023-05-20T20:43:28.349Z,16.65
2023-05-20T20:46:32.223Z,16.65
2023-05-20T20:49:35.237Z,16.54
2023-05-20T20:52:41.608Z,16.49
2023-05-20T20:55:44.049Z,16.49
2023-05-20T20:58:48.345Z,16.39
2023-05-20T21:01:52.785Z,16.47
2023-05-20T21:04:55.312Z,16.48
2023-05-20T21:07:57.190Z,16.48
2023-05-20T21:10:59.235Z,16.65
2023-05-20T21:14:01.150Z,16.49
2023-05-20T21:17:04.887Z,16.52
2023-05-20T21:20:08.081Z,16.49
2023-05-20T21:23:09.859Z,16.57
2023-05-20T21:26:12.309Z,16.48
2023-05-20T21:29:14.278Z,16.50
2023-05-20T21:32:17.680Z,16.46
2023-05-20T21:35:21.784Z,16.52
2023-05-20T21:38:23.556Z,16.40
2023-05-20T21:41:25.320Z,16.38
2023-05-20T21:44:27.171Z,16.46
2023-05-20T21:47:32.973Z,16.43
2023-05-20T21:50:36.076Z,16.31
2023-05-20T21:53:37.912Z,16.25
2023-05-20T21:56:41.825Z,16.23
2023-05-20T21:59:43.662Z,16.16
2023-05-20T22:02:49.429Z,16.17
2023-05-20T22:05:53.625Z,16.23
2023-05-20T22:08:55.401Z,16.19
2023-05-20T22:11:58.249Z,16.15
2023-05-20T22:15:01.480Z,15.99
2023-05-20T22:18:07.643Z,15.90
2023-05-20T22:21:13.694Z,16.06
2023-05-20T22:24:16.232Z,15.96
2023-05-20T22:27:18.892Z,15.91
2023-05-20T22:30:20.761Z,15.89
2023-05-20T22:33:23.891Z,15.91
2023-05-20T22:36:26.037Z,15.92
2023-05-20T22:39:29.169Z,15.88
2023-05-20T22:42:33.689Z,15.88
2023-05-20T22:45:35.816Z,15.83
2023-05-20T22:48:41.424Z,15.78
2023-05-20T22:51:43.298Z,15.73
2023-05-20T22:54:45.611Z,15.74
2023-05-20T22:57:47.374Z,15.73
2023-05-20T23:00:49.374Z,15.73
2023-05-20T23:03:57.067Z,15.67
2023-05-20T23:06:59.626Z,15.75
2023-05-20T23:10:01.685Z,15.67
2023-05-20T23:13:03.468Z,15.56
2023-05-20T23:16:05.772Z,15.60
2023-05-20T23:19:09.265Z,15.59
2023-05-20T23:22:11.044Z,15.52
2023-05-20T23:25:15.903Z,15.50
2023-05-20T23:28:18.748Z,15.49
2023-05-20T23:31:20.728Z,15.20
2023-05-20T23:34:24.352Z,15.23
2023-05-20T23:37:26.886Z,15.32
2023-05-20T23:40:29.014Z,15.33
2023-05-20T23:43:34.859Z,15.35
2023-05-20T23:46:37.164Z,15.29
2023-05-20T23:49:42.965Z,15.31
2023-05-20T23:52:47.420Z,15.30
2023-05-20T23:55:49.699Z,15.31
2023-05-20T23:58:53.495Z,15.20
